createdAt,value
2019-01-20T00:02:01.492Z,95048.77
2019-01-20T00:04:29.369Z,95054.33
2019-01-20T00:06:56.812Z,95058.28
2019-01-20T00:09:24.256Z,95047.69
2019-01-20T00:11:51.707Z,95047.92
2019-01-20T00:14:19.133Z,95054.84
2019-01-20T00:16:46.614Z,95044.05
2019-01-20T00:19:14.072Z,95044.08
2019-01-20T00:21:41.562Z,95042.89
2019-01-20T00:24:09.107Z,95047.48
2019-01-20T00:26:36.511Z,95051.72
2019-01-20T00:29:04.844Z,95045.67
2019-01-20T00:31:32.303Z,95055.78
2019-01-20T00:33:59.704Z,95048.34
2019-01-20T00:36:27.146Z,95050.81
2019-01-20T00:38:54.675Z,95049.27
2019-01-20T00:41:24.293Z,95052.09
2019-01-20T00:43:51.464Z,95053.73
2019-01-20T00:46:19.732Z,95056.69
2019-01-20T00:48:47.151Z,95057.04
2019-01-20T00:51:14.769Z,95051.69
2019-01-20T00:53:42.205Z,95052.69
2019-01-20T00:56:09.726Z,95056.30
2019-01-20T00:58:37.124Z,95059.43
2019-01-20T01:01:04.806Z,95058.33
2019-01-20T01:03:32.312Z,95064.41
2019-01-20T01:05:59.886Z,95055.88
2019-01-20T01:08:27.363Z,95059.09
2019-01-20T01:10:54.823Z,95055.84
2019-01-20T01:13:22.256Z,95064.91
2019-01-20T01:15:49.733Z,95064.20
2019-01-20T01:18:17.132Z,95065.08
2019-01-20T01:20:44.553Z,95067.52
2019-01-20T01:23:12.011Z,95062.05
2019-01-20T01:25:39.439Z,95064.37
2019-01-20T01:28:06.850Z,95067.73
2019-01-20T01:30:34.285Z,95074.83
2019-01-20T01:33:01.701Z,95069.66
2019-01-20T01:35:29.145Z,95070.37
2019-01-20T01:37:56.611Z,95069.78
2019-01-20T01:40:24.048Z,95067.05
2019-01-20T01:42:51.472Z,95066.02
2019-01-20T01:45:20.286Z,95064.73
2019-01-20T01:47:47.759Z,95069.80
2019-01-20T01:50:16.053Z,95066.17
2019-01-20T01:52:43.544Z,95069.14
2019-01-20T01:55:10.971Z,95069.44
2019-01-20T01:57:38.596Z,95068.48
2019-01-20T02:00:12.599Z,95069.53
2019-01-20T02:02:40.034Z,95060.14
2019-01-20T02:05:09.035Z,95066.05
2019-01-20T02:07:36.519Z,95065.21
2019-01-20T02:10:06.768Z,95060.11
2019-01-20T02:12:34.224Z,95065.80
2019-01-20T02:15:01.687Z,95068.33
2019-01-20T02:17:29.203Z,95070.55
2019-01-20T02:19:56.607Z,95074.42
2019-01-20T02:22:24.065Z,95075.41
2019-01-20T02:24:51.464Z,95078.72
2019-01-20T02:27:18.868Z,95071.72
2019-01-20T02:29:46.332Z,95074.83
2019-01-20T02:32:13.732Z,95070.88
2019-01-20T02:34:41.156Z,95073.95
2019-01-20T02:37:08.599Z,95074.64
2019-01-20T02:39:36.021Z,95080.58
2019-01-20T02:42:03.572Z,95077.21
2019-01-20T02:44:33.227Z,95082.04
2019-01-20T02:47:00.647Z,95074.14
2019-01-20T02:49:28.068Z,95077.65
2019-01-20T02:51:55.563Z,95079.09
2019-01-20T02:54:22.951Z,95078.92
2019-01-20T02:56:50.353Z,95075.72
2019-01-20T02:59:17.818Z,95077.13
2019-01-20T03:01:45.434Z,95070.41
2019-01-20T03:04:12.849Z,95070.28
2019-01-20T03:06:40.368Z,95064.19
2019-01-20T03:09:08.892Z,95064.97
2019-01-20T03:11:36.357Z,95067.42
2019-01-20T03:14:04.056Z,95068.00
2019-01-20T03:16:31.503Z,95067.66
2019-01-20T03:18:59.145Z,95070.84
2019-01-20T03:21:26.592Z,95070.93
2019-01-20T03:23:54.000Z,95068.08
2019-01-20T03:26:21.410Z,95079.84
2019-01-20T03:28:48.879Z,95075.20
2019-01-20T03:31:16.303Z,95071.61
2019-01-20T03:33:43.715Z,95076.02
2019-01-20T03:36:11.186Z,95073.93
2019-01-20T03:38:38.611Z,95065.63
2019-01-20T03:41:06.026Z,95064.30
2019-01-20T03:43:33.484Z,95067.72
2019-01-20T03:46:00.898Z,95070.09
2019-01-20T03:48:28.314Z,95068.05
2019-01-20T03:50:55.756Z,95069.52
2019-01-20T03:53:23.171Z,95070.69
2019-01-20T03:55:50.666Z,95065.86
2019-01-20T03:58:18.211Z,95067.02
2019-01-20T04:00:45.711Z,95067.28
2019-01-20T04:03:13.135Z,95068.44
2019-01-20T04:05:40.593Z,95064.81
2019-01-20T04:08:08.033Z,95060.80
2019-01-20T04:10:35.432Z,95069.44
2019-01-20T04:13:02.865Z,95067.69
2019-01-20T04:15:30.283Z,95065.53
2019-01-20T04:17:57.723Z,95059.82
2019-01-20T04:20:25.307Z,95067.17
2019-01-20T04:22:52.743Z,95063.07
2019-01-20T04:25:20.291Z,95069.86
2019-01-20T04:27:47.752Z,95058.94
2019-01-20T04:30:17.201Z,95056.66
2019-01-20T04:32:44.592Z,95057.42
2019-01-20T04:35:12.155Z,95061.55
2019-01-20T04:37:39.604Z,95058.59
2019-01-20T04:40:10.128Z,95056.60
2019-01-20T04:42:37.625Z,95064.23
2019-01-20T04:45:06.885Z,95068.05
2019-01-20T04:47:34.290Z,95061.96
2019-01-20T04:50:01.763Z,95061.89
2019-01-20T04:52:29.175Z,95060.03
2019-01-20T04:54:56.588Z,95072.69
2019-01-20T04:57:24.352Z,95066.77
2019-01-20T04:59:51.811Z,95070.20
2019-01-20T05:02:19.211Z,95060.86
2019-01-20T05:04:47.218Z,95064.30
2019-01-20T05:07:14.703Z,95067.95
2019-01-20T05:09:42.131Z,95076.63
2019-01-20T05:12:09.605Z,95066.59
2019-01-20T05:14:37.013Z,95067.08
2019-01-20T05:17:04.416Z,95069.81
2019-01-20T05:19:31.983Z,95066.77
2019-01-20T05:21:59.410Z,95075.72
2019-01-20T05:24:26.848Z,95077.01
2019-01-20T05:26:54.310Z,95071.39
2019-01-20T05:29:21.730Z,95064.13
2019-01-20T05:31:49.132Z,95063.19
2019-01-20T05:34:16.592Z,95066.21
2019-01-20T05:36:43.990Z,95066.33
2019-01-20T05:39:11.388Z,95071.44
2019-01-20T05:41:39.327Z,95069.77
2019-01-20T05:44:06.733Z,95074.20
2019-01-20T05:46:34.151Z,95076.14
2019-01-20T05:49:01.610Z,95076.12
2019-01-20T05:51:29.042Z,95073.50
2019-01-20T05:53:56.478Z,95077.86
2019-01-20T05:56:23.991Z,95080.19
2019-01-20T05:58:51.450Z,95087.38
2019-01-20T06:01:18.865Z,95086.26
2019-01-20T06:03:46.444Z,95082.72
2019-01-20T06:06:13.896Z,95079.06
2019-01-20T06:08:41.306Z,95077.95
2019-01-20T06:11:08.833Z,95078.08
2019-01-20T06:13:36.279Z,95077.73
2019-01-20T06:16:03.809Z,95080.73
2019-01-20T06:18:31.280Z,95078.14
2019-01-20T06:20:58.717Z,95081.01
2019-01-20T06:23:26.133Z,95084.94
2019-01-20T06:25:53.578Z,95081.36
2019-01-20T06:28:20.993Z,95083.36
2019-01-20T06:30:48.459Z,95090.89
2019-01-20T06:33:15.920Z,95090.84
2019-01-20T06:35:43.346Z,95093.08
2019-01-20T06:38:10.845Z,95090.84
2019-01-20T06:40:38.337Z,95094.17
2019-01-20T06:43:05.746Z,95099.02
2019-01-20T06:45:33.194Z,95099.24
2019-01-20T06:48:00.672Z,95098.00
2019-01-20T06:50:28.261Z,95104.57
2019-01-20T06:52:55.696Z,95106.85
2019-01-20T06:55:23.191Z,95100.44
2019-01-20T06:57:50.631Z,95101.53
2019-01-20T07:00:19.905Z,95108.95
2019-01-20T07:02:47.711Z,95112.36
2019-01-20T07:05:15.271Z,95114.98
2019-01-20T07:07:42.943Z,95115.49
2019-01-20T07:10:11.505Z,95117.86
2019-01-20T07:12:40.773Z,95116.45
2019-01-20T07:15:11.551Z,95117.65
2019-01-20T07:17:39.030Z,95118.34
2019-01-20T07:20:07.849Z,95124.68
2019-01-20T07:22:35.289Z,95121.91
2019-01-20T07:25:02.944Z,95129.55
2019-01-20T07:27:30.430Z,95127.73
2019-01-20T07:29:57.854Z,95126.54
2019-01-20T07:32:25.323Z,95130.77
2019-01-20T07:34:52.808Z,95132.22
2019-01-20T07:37:20.352Z,95135.70
2019-01-20T07:39:47.830Z,95136.95
2019-01-20T07:42:15.272Z,95136.22
2019-01-20T07:44:42.776Z,95129.55
2019-01-20T07:47:10.321Z,95139.99
2019-01-20T07:49:37.775Z,95146.69
2019-01-20T07:52:05.217Z,95146.72
2019-01-20T07:54:32.676Z,95142.23
2019-01-20T07:57:00.125Z,95144.81
2019-01-20T07:59:27.727Z,95141.34
2019-01-20T08:01:55.374Z,95142.27
2019-01-20T08:04:22.857Z,95144.44
2019-01-20T08:06:50.297Z,95146.93
2019-01-20T08:09:17.828Z,95147.75
2019-01-20T08:11:45.244Z,95142.16
2019-01-20T08:14:12.803Z,95145.47
2019-01-20T08:16:41.631Z,95151.06
2019-01-20T08:19:09.086Z,95151.61
2019-01-20T08:21:36.574Z,95155.02
2019-01-20T08:24:04.332Z,95163.00
2019-01-20T08:26:33.178Z,95162.72
2019-01-20T08:29:00.602Z,95167.19
2019-01-20T08:31:28.847Z,95165.83
2019-01-20T08:33:56.617Z,95167.38
2019-01-20T08:36:24.080Z,95174.52
2019-01-20T08:38:51.535Z,95176.22
2019-01-20T08:41:18.950Z,95172.20
2019-01-20T08:43:46.437Z,95168.44
2019-01-20T08:46:44.034Z,95170.78
2019-01-20T08:49:11.470Z,95175.11
2019-01-20T08:51:40.392Z,95167.67
2019-01-20T08:54:07.849Z,95170.92
2019-01-20T08:56:35.270Z,95170.78
2019-01-20T08:59:02.768Z,95177.01
2019-01-20T09:01:30.263Z,95176.66
2019-01-20T09:03:57.720Z,95174.07
2019-01-20T09:06:25.299Z,95174.54
2019-01-20T09:08:52.754Z,95166.98
2019-01-20T09:11:20.197Z,95171.80
2019-01-20T09:13:47.679Z,95171.29
2019-01-20T09:16:15.199Z,95172.39
2019-01-20T09:18:42.656Z,95172.80
2019-01-20T09:21:10.069Z,95175.69
2019-01-20T09:23:37.759Z,95178.00
2019-01-20T09:26:07.860Z,95173.86
2019-01-20T09:28:35.235Z,95174.98
2019-01-20T09:31:03.339Z,95169.51
2019-01-20T09:33:30.752Z,95174.44
2019-01-20T09:35:58.176Z,95175.75
2019-01-20T09:38:25.645Z,95170.38
2019-01-20T09:40:53.065Z,95175.69
2019-01-20T09:43:20.488Z,95173.20
2019-01-20T09:45:48.560Z,95174.76
2019-01-20T09:48:15.999Z,95183.16
2019-01-20T09:50:43.463Z,95174.11
2019-01-20T09:53:10.988Z,95175.89
2019-01-20T09:55:38.459Z,95168.45
2019-01-20T09:58:05.874Z,95172.80
2019-01-20T10:00:33.502Z,95169.13
2019-01-20T10:03:00.969Z,95167.33
2019-01-20T10:05:28.393Z,95166.45
2019-01-20T10:07:55.894Z,95166.25
2019-01-20T10:10:23.318Z,95160.22
2019-01-20T10:12:51.812Z,95157.38
2019-01-20T10:15:19.312Z,95160.41
2019-01-20T10:17:46.786Z,95160.55
2019-01-20T10:20:16.991Z,95154.95
2019-01-20T10:22:44.595Z,95155.42
2019-01-20T10:25:15.192Z,95154.43
2019-01-20T10:27:41.380Z,95148.44
2019-01-20T10:30:16.660Z,95152.06
2019-01-20T10:32:47.901Z,95154.95
2019-01-20T10:35:14.766Z,95142.41
2019-01-20T10:37:42.451Z,95144.24
2019-01-20T10:40:09.967Z,95141.31
2019-01-20T10:42:37.361Z,95139.97
2019-01-20T10:45:05.991Z,95137.02
2019-01-20T10:47:33.406Z,95139.33
2019-01-20T10:50:00.861Z,95133.90
2019-01-20T10:52:29.624Z,95132.41
2019-01-20T10:54:57.039Z,95128.30
2019-01-20T10:57:27.195Z,95128.81
2019-01-20T10:59:54.664Z,95126.61
2019-01-20T11:02:22.899Z,95127.59
2019-01-20T11:04:57.304Z,95123.22
2019-01-20T11:07:20.357Z,95119.57
2019-01-20T11:09:47.783Z,95119.52
2019-01-20T11:12:15.231Z,95118.02
2019-01-20T11:14:42.754Z,95115.02
2019-01-20T11:17:10.222Z,95118.09
2019-01-20T11:19:37.717Z,95116.78
2019-01-20T11:22:05.176Z,95118.23
2019-01-20T11:24:32.606Z,95116.43
2019-01-20T11:27:00.062Z,95118.19
2019-01-20T11:29:27.581Z,95110.84
2019-01-20T11:31:55.028Z,95105.71
2019-01-20T11:34:22.508Z,95104.42
2019-01-20T11:36:49.949Z,95103.39
2019-01-20T11:39:17.414Z,95098.94
2019-01-20T11:41:44.863Z,95092.95
2019-01-20T11:44:16.932Z,95093.12
2019-01-20T11:46:41.835Z,95090.48
2019-01-20T11:49:09.575Z,95083.08
2019-01-20T11:51:37.195Z,95084.47
2019-01-20T11:54:04.873Z,95066.95
2019-01-20T11:56:32.325Z,95066.95
2019-01-20T11:58:59.808Z,95068.88
2019-01-20T12:01:27.284Z,95064.48
2019-01-20T12:03:54.752Z,95065.48
2019-01-20T12:06:22.222Z,95057.01
2019-01-20T12:08:49.667Z,95058.08
2019-01-20T12:11:17.283Z,95056.53
2019-01-20T12:13:45.351Z,95052.09
2019-01-20T12:16:12.951Z,95052.09
2019-01-20T12:18:40.394Z,95049.60
2019-01-20T12:21:07.887Z,95042.06
2019-01-20T12:23:35.271Z,95047.93
2019-01-20T12:26:03.144Z,95026.73
2019-01-20T12:28:30.599Z,95038.30
2019-01-20T12:30:58.053Z,95037.63
2019-01-20T12:33:25.473Z,95026.58
2019-01-20T12:35:53.045Z,95024.94
2019-01-20T12:38:20.543Z,95022.37
2019-01-20T12:40:48.061Z,95022.14
2019-01-20T12:43:15.582Z,95021.75
2019-01-20T12:45:43.328Z,95029.59
2019-01-20T12:48:10.785Z,95021.36
2019-01-20T12:50:38.425Z,95022.03
2019-01-20T12:53:05.863Z,95018.95
2019-01-20T12:55:33.321Z,95022.11
2019-01-20T12:58:00.978Z,95021.98
2019-01-20T13:00:28.519Z,95021.66
2019-01-20T13:02:55.967Z,95017.32
2019-01-20T13:05:23.472Z,95015.89
2019-01-20T13:07:50.924Z,95017.00
2019-01-20T13:10:18.848Z,95013.53
2019-01-20T13:12:46.691Z,95011.25
2019-01-20T13:15:16.559Z,95007.08
2019-01-20T13:17:43.994Z,95005.44
2019-01-20T13:20:16.923Z,95006.35
2019-01-20T13:22:44.409Z,95013.94
2019-01-20T13:25:14.375Z,95011.57
2019-01-20T13:27:41.863Z,95012.06
2019-01-20T13:30:13.267Z,95014.19
2019-01-20T13:32:40.740Z,95008.83
2019-01-20T13:35:08.622Z,95007.75
2019-01-20T13:37:37.500Z,95007.75
2019-01-20T13:40:08.314Z,95008.45
2019-01-20T13:42:35.838Z,95005.09
2019-01-20T13:45:04.140Z,95006.91
2019-01-20T13:47:31.591Z,95007.88
2019-01-20T13:49:59.241Z,95009.31
2019-01-20T13:52:26.739Z,95010.12
2019-01-20T13:54:54.202Z,95009.11
2019-01-20T13:57:21.715Z,95002.67
2019-01-20T13:59:49.155Z,95006.91
2019-01-20T14:02:16.594Z,95009.66
2019-01-20T14:04:44.100Z,95014.43
2019-01-20T14:07:11.597Z,95014.43
2019-01-20T14:09:39.059Z,95021.46
2019-01-20T14:12:06.591Z,95021.46
2019-01-20T14:14:34.081Z,95020.33
2019-01-20T14:17:01.579Z,95020.33
2019-01-20T14:19:29.246Z,95018.03
2019-01-20T14:21:56.682Z,95020.02
2019-01-20T14:24:24.157Z,95019.11
2019-01-20T14:26:51.658Z,95020.78
2019-01-20T14:29:19.063Z,95026.33
2019-01-20T14:31:46.541Z,95028.61
2019-01-20T14:34:14.070Z,95035.65
2019-01-20T14:36:41.552Z,95035.65
2019-01-20T14:39:12.375Z,95034.61
2019-01-20T14:41:39.821Z,95027.29
2019-01-20T14:44:07.294Z,95034.75
2019-01-20T14:46:34.750Z,95035.48
2019-01-20T14:49:02.259Z,95040.19
2019-01-20T14:51:29.910Z,95038.61
2019-01-20T14:53:57.363Z,95042.44
2019-01-20T14:56:25.019Z,95043.05
2019-01-20T14:58:52.856Z,95040.24
2019-01-20T15:01:20.535Z,95043.17
2019-01-20T15:03:48.458Z,95045.48
2019-01-20T15:06:16.101Z,95037.38
2019-01-20T15:08:43.834Z,95037.38
2019-01-20T15:11:11.414Z,95043.52
2019-01-20T15:13:39.135Z,95043.52
2019-01-20T15:16:06.872Z,95047.70
2019-01-20T15:18:34.440Z,95040.53
2019-01-20T15:21:02.038Z,95049.13
2019-01-20T15:23:29.918Z,95049.05
2019-01-20T15:25:57.525Z,95058.22
2019-01-20T15:28:25.360Z,95058.97
2019-01-20T15:30:53.215Z,95055.71
2019-01-20T15:33:20.874Z,95058.25
2019-01-20T15:35:48.553Z,95062.83
2019-01-20T15:38:16.079Z,95057.64
2019-01-20T15:40:43.945Z,95069.55
2019-01-20T15:43:11.491Z,95064.44
2019-01-20T15:45:39.165Z,95069.32
2019-01-20T15:48:07.011Z,95069.13
2019-01-20T15:50:34.772Z,95071.06
2019-01-20T15:53:02.429Z,95067.58
2019-01-20T15:55:30.317Z,95077.85
2019-01-20T15:57:57.792Z,95074.53
2019-01-20T16:00:27.546Z,95078.91
2019-01-20T16:02:55.542Z,95075.94
2019-01-20T16:05:24.717Z,95083.71
2019-01-20T16:07:52.560Z,95081.55
2019-01-20T16:10:20.261Z,95090.20
2019-01-20T16:12:48.231Z,95085.51
2019-01-20T16:15:36.196Z,95086.42
2019-01-20T16:18:04.816Z,95088.85
2019-01-20T16:20:32.771Z,95093.40
2019-01-20T16:23:01.785Z,95084.16
2019-01-20T16:25:31.310Z,95091.17
2019-01-20T16:27:59.201Z,95091.56
2019-01-20T16:30:32.434Z,95099.38
2019-01-20T16:33:00.214Z,95102.98
2019-01-20T16:35:28.130Z,95109.20
2019-01-20T16:37:57.004Z,95112.09
2019-01-20T16:40:25.897Z,95116.48
2019-01-20T16:42:53.536Z,95115.64
2019-01-20T16:45:31.515Z,95115.64
2019-01-20T16:47:54.728Z,95114.17
2019-01-20T16:50:23.339Z,95114.17
2019-01-20T16:52:54.717Z,95113.84
2019-01-20T16:55:21.232Z,95118.89
2019-01-20T16:57:49.112Z,95124.76
2019-01-20T17:00:25.694Z,95125.66
2019-01-20T17:02:53.864Z,95123.78
2019-01-20T17:05:26.496Z,95126.99
2019-01-20T17:07:51.767Z,95127.27
2019-01-20T17:10:25.115Z,95125.25
2019-01-20T17:12:53.203Z,95127.69
2019-01-20T17:15:23.682Z,95132.08
2019-01-20T17:17:51.712Z,95134.34
2019-01-20T17:20:19.880Z,95135.28
2019-01-20T17:22:48.628Z,95136.57
2019-01-20T17:25:16.625Z,95132.72
2019-01-20T17:27:44.669Z,95130.23
2019-01-20T17:30:15.707Z,95137.55
2019-01-20T17:32:43.739Z,95136.23
2019-01-20T17:35:11.772Z,95139.05
2019-01-20T17:37:39.699Z,95146.77
2019-01-20T17:40:10.610Z,95141.88
2019-01-20T17:42:39.854Z,95144.38
2019-01-20T17:45:09.295Z,95150.86
2019-01-20T17:47:40.774Z,95154.64
2019-01-20T17:50:33.319Z,95151.67
2019-01-20T17:53:08.461Z,95154.00
2019-01-20T17:55:51.390Z,95159.92
2019-01-20T17:58:19.555Z,95158.71
2019-01-20T18:01:11.925Z,95159.75
2019-01-20T18:03:49.006Z,95164.63
2019-01-20T18:06:20.806Z,95168.15
2019-01-20T18:08:57.548Z,95176.83
2019-01-20T18:11:32.937Z,95172.43
2019-01-20T18:14:07.916Z,95173.01
2019-01-20T18:16:35.999Z,95173.01
2019-01-20T18:19:04.020Z,95169.47
2019-01-20T18:21:32.043Z,95181.47
2019-01-20T18:24:00.047Z,95187.06
2019-01-20T18:26:28.085Z,95180.14
2019-01-20T18:28:56.118Z,95181.95
2019-01-20T18:31:25.810Z,95180.32
2019-01-20T18:33:55.118Z,95179.88
2019-01-20T18:36:24.952Z,95178.46
2019-01-20T18:38:59.040Z,95183.66
2019-01-20T18:41:36.823Z,95189.02
2019-01-20T18:44:07.207Z,95191.44
2019-01-20T18:46:38.948Z,95189.52
2019-01-20T18:49:11.301Z,95186.14
2019-01-20T18:51:42.240Z,95189.92
2019-01-20T18:54:13.592Z,95198.30
2019-01-20T18:56:45.476Z,95201.70
2019-01-20T18:59:19.284Z,95201.55
2019-01-20T19:01:52.092Z,95208.41
2019-01-20T19:04:27.622Z,95204.95
2019-01-20T19:06:59.540Z,95204.43
2019-01-20T19:09:34.258Z,95207.52
2019-01-20T19:12:05.277Z,95211.69
2019-01-20T19:14:33.404Z,95210.19
2019-01-20T19:17:04.521Z,95209.87
2019-01-20T19:19:32.855Z,95218.16
2019-01-20T19:22:00.893Z,95211.92
2019-01-20T19:24:29.039Z,95216.83
2019-01-20T19:26:57.053Z,95219.36
2019-01-20T19:29:25.037Z,95226.22
2019-01-20T19:31:53.120Z,95233.25
2019-01-20T19:34:21.134Z,95233.25
2019-01-20T19:36:49.128Z,95233.42
2019-01-20T19:39:19.524Z,95233.53
2019-01-20T19:41:47.571Z,95237.16
2019-01-20T19:44:15.596Z,95243.91
2019-01-20T19:46:43.796Z,95245.20
2019-01-20T19:49:13.214Z,95253.33
2019-01-20T19:51:41.291Z,95244.58
2019-01-20T19:54:09.380Z,95250.98
2019-01-20T19:56:37.420Z,95248.36
2019-01-20T19:59:05.459Z,95247.13
2019-01-20T20:01:33.515Z,95255.47
2019-01-20T20:04:01.540Z,95247.52
2019-01-20T20:06:29.590Z,95255.84
2019-01-20T20:08:57.640Z,95256.91
2019-01-20T20:11:25.651Z,95255.96
2019-01-20T20:13:53.669Z,95257.64
2019-01-20T20:16:23.399Z,95266.11
2019-01-20T20:18:51.615Z,95264.95
2019-01-20T20:21:19.644Z,95265.84
2019-01-20T20:23:47.693Z,95273.59
2019-01-20T20:26:15.739Z,95270.88
2019-01-20T20:28:43.654Z,95272.88
2019-01-20T20:31:11.702Z,95273.42
2019-01-20T20:33:39.731Z,95273.42
2019-01-20T20:36:07.732Z,95275.15
2019-01-20T20:38:35.674Z,95279.62
2019-01-20T20:41:03.673Z,95285.48
2019-01-20T20:43:31.680Z,95290.13
2019-01-20T20:45:59.696Z,95287.31
2019-01-20T20:48:27.684Z,95286.11
2019-01-20T20:50:55.663Z,95285.77
2019-01-20T20:53:23.594Z,95285.77
2019-01-20T20:55:51.592Z,95292.91
2019-01-20T20:58:19.460Z,95292.47
2019-01-20T21:00:50.280Z,95292.92
2019-01-20T21:03:37.948Z,95301.52
2019-01-20T21:06:05.950Z,95299.39
2019-01-20T21:08:33.983Z,95305.25
2019-01-20T21:11:01.992Z,95301.89
2019-01-20T21:13:30.034Z,95303.12
2019-01-20T21:15:57.936Z,95305.31
2019-01-20T21:18:25.831Z,95310.27
2019-01-20T21:20:53.802Z,95309.14
2019-01-20T21:23:21.761Z,95316.30
2019-01-20T21:25:49.803Z,95311.81
2019-01-20T21:28:17.752Z,95311.77
2019-01-20T21:30:45.783Z,95313.94
2019-01-20T21:33:13.783Z,95314.12
2019-01-20T21:35:41.799Z,95320.38
2019-01-20T21:38:09.741Z,95316.73
2019-01-20T21:40:37.696Z,95323.10
2019-01-20T21:43:05.734Z,95319.52
2019-01-20T21:45:33.591Z,95325.77
2019-01-20T21:48:01.340Z,95322.15
2019-01-20T21:50:30.570Z,95327.28
2019-01-20T21:52:58.700Z,95324.38
2019-01-20T21:55:26.176Z,95331.84
2019-01-20T21:57:54.019Z,95335.41
2019-01-20T22:00:23.426Z,95341.88
2019-01-20T22:02:51.050Z,95341.73
2019-01-20T22:05:18.779Z,95340.98
2019-01-20T22:07:46.332Z,95349.83
2019-01-20T22:10:15.720Z,95345.88
2019-01-20T22:12:43.249Z,95353.73
2019-01-20T22:15:10.916Z,95356.98
2019-01-20T22:17:38.404Z,95349.22
2019-01-20T22:20:08.141Z,95352.53
2019-01-20T22:22:35.534Z,95354.95
2019-01-20T22:25:03.340Z,95349.27
2019-01-20T22:27:30.832Z,95351.34
2019-01-20T22:29:58.270Z,95351.11
2019-01-20T22:32:25.724Z,95353.16
2019-01-20T22:34:53.199Z,95353.38
2019-01-20T22:37:20.631Z,95358.31
2019-01-20T22:39:48.117Z,95350.72
2019-01-20T22:42:15.657Z,95359.53
2019-01-20T22:44:43.099Z,95363.78
2019-01-20T22:47:10.542Z,95360.55
2019-01-20T22:49:38.022Z,95360.55
2019-01-20T22:52:05.428Z,95366.17
2019-01-20T22:54:33.004Z,95365.02
2019-01-20T22:57:00.459Z,95362.91
2019-01-20T22:59:27.823Z,95362.76
2019-01-20T23:01:55.268Z,95365.22
2019-01-20T23:04:22.739Z,95364.23
2019-01-20T23:06:50.279Z,95366.85
2019-01-20T23:09:17.683Z,95367.19
2019-01-20T23:11:45.151Z,95367.45
2019-01-20T23:14:12.627Z,95374.90
2019-01-20T23:16:40.050Z,95367.20
2019-01-20T23:19:07.515Z,95363.20
2019-01-20T23:21:34.939Z,95361.61
2019-01-20T23:24:02.361Z,95361.77
2019-01-20T23:26:30.320Z,95362.20
2019-01-20T23:28:57.779Z,95366.06
2019-01-20T23:31:25.207Z,95357.96
2019-01-20T23:33:52.699Z,95365.56
2019-01-20T23:36:20.100Z,95364.14
2019-01-20T23:38:47.543Z,95354.16
2019-01-20T23:41:15.039Z,95361.88
2019-01-20T23:43:42.459Z,95361.31
2019-01-20T23:46:09.881Z,95362.36
2019-01-20T23:48:37.893Z,95359.89
2019-01-20T23:51:05.340Z,95359.69
2019-01-20T23:53:32.762Z,95350.76
2019-01-20T23:56:00.339Z,95360.44
2019-01-20T23:58:27.774Z,95360.44
